| time (UTC) | temp C | wind direction | speed KPH | gust KPH | rain 1hr cm | rain 24hr cm | rain mn cm | humidity % | barometer mb |
| 20260505101105 | 13 | 167 | 8.0 | 12.9 | 0.00 | 0.00 | 0.00 | 59 | 1005.0 |
| 20260505100334 | 13 | 154 | 9.7 | 14.5 | 0.00 | 0.00 | 0.00 | 58 | 1004.9 |
| 20260505095834 | 12 | 169 | 9.7 | 14.5 | 0.00 | 0.00 | 0.00 | 57 | 1004.9 |
| 20260505095332 | 12 | 157 | 8.0 | 14.5 | 0.00 | 0.00 | 0.00 | 57 | 1005.0 |
| 20260505094833 | 12 | 159 | 6.4 | 14.5 | 0.00 | 0.00 | 0.00 | 57 | 1005.0 |
| 20260505094333 | 12 | 158 | 3.2 | 9.7 | 0.00 | 0.00 | 0.00 | 56 | 1004.8 |
| 20260505093831 | 12 | 149 | 4.8 | 9.7 | 0.00 | 0.00 | 0.00 | 57 | 1004.9 |
| 20260505093330 | 12 | 142 | 6.4 | 11.3 | 0.00 | 0.00 | 0.00 | 57 | 1004.8 |
| 20260505093104 | 12 | 138 | 8.0 | 11.3 | 0.00 | 0.00 | 0.00 | 58 | 1004.8 |
| 20260505092315 | 12 | 148 | 8.0 | 12.9 | 0.00 | 0.00 | 0.00 | 59 | 1004.8 |
| 20260505091812 | 12 | 150 | 8.0 | 16.1 | 0.00 | 0.00 | 0.00 | 60 | 1004.6 |
| 20260505091309 | 12 | 172 | 8.0 | 16.1 | 0.00 | 0.00 | 0.00 | 62 | 1004.5 |
| 20260505090810 | 12 | 119 | 8.0 | 11.3 | 0.00 | 0.00 | 0.00 | 65 | 1004.5 |
| 20260505090310 | 12 | 149 | 8.0 | 14.5 | 0.00 | 0.00 | 0.00 | 66 | 1004.5 |
| 20260505090039 | 12 | 166 | 8.0 | 14.5 | 0.00 | 0.00 | 0.00 | 67 | 1004.5 |
| 20260505085309 | 12 | 123 | 8.0 | 12.9 | 0.00 | 0.00 | 0.00 | 68 | 1004.5 |
| 20260505084810 | 12 | 163 | 8.0 | 14.5 | 0.00 | 0.00 | 0.00 | 69 | 1004.5 |
| 20260505084309 | 12 | 123 | 9.7 | 14.5 | 0.00 | 0.00 | 0.00 | 69 | 1004.5 |
| 20260505083809 | 12 | 146 | 8.0 | 12.9 | 0.00 | 0.00 | 0.00 | 69 | 1004.6 |
| 20260505083306 | 12 | 149 | 8.0 | 11.3 | 0.00 | 0.00 | 0.00 | 69 | 1004.6 |
| 20260505083030 | 12 | 122 | 8.0 | 11.3 | 0.00 | 0.00 | 0.00 | 69 | 1004.5 |
| 20260505082253 | 12 | 123 | 8.0 | 12.9 | 0.00 | 0.00 | 0.00 | 69 | 1004.6 |
| 20260505081743 | 12 | 175 | 9.7 | 12.9 | 0.00 | 0.00 | 0.00 | 69 | 1004.5 |
| 20260505081241 | 12 | 152 | 8.0 | 12.9 | 0.00 | 0.00 | 0.00 | 68 | 1004.6 |
| 20260505080736 | 12 | 132 | 6.4 | 11.3 | 0.00 | 0.00 | 0.00 | 69 | 1004.8 |
| 20260505080230 | 12 | 127 | 6.4 | 9.7 | 0.00 | 0.00 | 0.00 | 69 | 1004.9 |
| 20260505075724 | 12 | 130 | 6.4 | 12.9 | 0.00 | 0.00 | 0.00 | 69 | 1005.0 |
| 20260505075215 | 12 | 171 | 9.7 | 12.9 | 0.00 | 0.00 | 0.00 | 68 | 1005.0 |
| 20260505074713 | 12 | 138 | 9.7 | 14.5 | 0.00 | 0.00 | 0.00 | 68 | 1005.0 |
| 20260505074213 | 12 | 122 | 9.7 | 14.5 | 0.00 | 0.00 | 0.00 | 68 | 1005.0 |
| 20260505073708 | 12 | 132 | 9.7 | 19.3 | 0.00 | 0.00 | 0.00 | 67 | 1005.3 |
| 20260505073206 | 12 | 126 | 9.7 | 20.9 | 0.00 | 0.00 | 0.00 | 67 | 1005.4 |
| 20260505072707 | 12 | 109 | 11.3 | 20.9 | 0.00 | 0.00 | 0.00 | 66 | 1005.6 |
| 20260505072207 | 12 | 98 | 8.0 | 17.7 | 0.00 | 0.00 | 0.00 | 65 | 1005.7 |
| 20260505071706 | 12 | 111 | 6.4 | 14.5 | 0.00 | 0.00 | 0.00 | 64 | 1005.7 |
| 20260505071438 | 12 | 147 | 8.0 | 12.9 | 0.00 | 0.00 | 0.00 | 64 | 1005.7 |
| 20260505070707 | 12 | 133 | 6.4 | 11.3 | 0.00 | 0.00 | 0.00 | 62 | 1005.7 |
| 20260505070207 | 12 | 117 | 4.8 | 9.7 | 0.00 | 0.00 | 0.00 | 58 | 1005.8 |
| 20260505065706 | 12 | 122 | 4.8 | 11.3 | 0.00 | 0.00 | 0.00 | 57 | 1005.8 |
| 20260505065207 | 13 | 117 | 9.7 | 22.5 | 0.00 | 0.00 | 0.00 | 57 | 1005.8 |
| 20260505064706 | 13 | 122 | 12.9 | 22.5 | 0.00 | 0.00 | 0.00 | 57 | 1005.7 |
| 20260505064207 | 12 | 168 | 12.9 | 19.3 | 0.00 | 0.00 | 0.00 | 57 | 1005.4 |
| 20260505063702 | 12 | 192 | 12.9 | 22.5 | 0.00 | 0.00 | 0.00 | 57 | 1005.4 |
| 20260505063423 | 12 | 139 | 12.9 | 22.5 | 0.00 | 0.00 | 0.00 | 57 | 1005.4 |
| 20260505062909 | 12 | 177 | 12.9 | 22.5 | 0.00 | 0.00 | 0.00 | 57 | 1005.6 |
| 20260505062126 | 12 | 135 | 14.5 | 32.2 | 0.00 | 0.00 | 0.00 | 56 | 1005.6 |
| 20260505061845 | 12 | 149 | 20.9 | 37.0 | 0.00 | 0.00 | 0.00 | 57 | 1005.4 |
| 20260505061102 | 12 | 190 | 24.1 | 38.6 | 0.00 | 0.00 | 0.00 | 57 | 1005.6 |
| 20260505060821 | 12 | 186 | 27.4 | 45.1 | 0.00 | 0.00 | 0.00 | 57 | 1005.4 |
| 20260505055525 | 12 | 177 | 27.4 | 48.3 | 0.00 | 0.00 | 0.00 | 58 | 1005.1 |
| 20260505055023 | 12 | 184 | 25.7 | 48.3 | 0.00 | 0.00 | 0.00 | 58 | 1005.2 |
| 20260505054513 | 12 | 190 | 27.4 | 54.7 | 0.00 | 0.00 | 0.00 | 59 | 1005.2 |
| 20260505054012 | 12 | 166 | 29.0 | 54.7 | 0.00 | 0.00 | 0.00 | 60 | 1005.3 |
| 20260505053505 | 12 | 195 | 27.4 | 46.7 | 0.00 | 0.00 | 0.00 | 62 | 1005.1 |
| 20260505052954 | 12 | 171 | 25.7 | 45.1 | 0.00 | 0.00 | 0.00 | 63 | 1005.2 |
| 20260505052724 | 12 | 158 | 22.5 | 43.5 | 0.00 | 0.00 | 0.00 | 63 | 1005.3 |
| 20260505051947 | 12 | 182 | 24.1 | 38.6 | 0.00 | 0.00 | 0.00 | 63 | 1005.2 |
| 20260505051441 | 12 | 157 | 24.1 | 38.6 | 0.00 | 0.00 | 0.00 | 63 | 1005.3 |
| 20260505050936 | 12 | 194 | 22.5 | 38.6 | 0.00 | 0.00 | 0.00 | 63 | 1005.0 |
| 20260505050425 | 12 | 168 | 20.9 | 38.6 | 0.00 | 0.00 | 0.00 | 64 | 1005.1 |
| 20260505041329 | 15 | 196 | 11.3 | 20.9 | 0.00 | 0.00 | 0.00 | 52 | 1005.6 |
| 20260505040824 | 15 | 190 | 8.0 | 20.9 | 0.00 | 0.00 | 0.00 | 51 | 1005.4 |
| 20260505035811 | 15 | 195 | 19.3 | 30.6 | 0.00 | 0.00 | 0.00 | 50 | 1005.8 |
| 20260505035301 | 15 | 145 | 22.5 | 33.8 | 0.00 | 0.00 | 0.00 | 48 | 1005.6 |
| 20260505034759 | 16 | 167 | 17.7 | 33.8 | 0.00 | 0.00 | 0.00 | 46 | 1005.6 |
| 20260505034254 | 16 | 144 | 14.5 | 22.5 | 0.00 | 0.00 | 0.00 | 43 | 1005.6 |
| 20260505033747 | 16 | 155 | 12.9 | 20.9 | 0.00 | 0.00 | 0.00 | 43 | 1005.6 |
| 20260505033513 | 16 | 181 | 12.9 | 20.9 | 0.00 | 0.00 | 0.00 | 44 | 1005.4 |
| 20260505032959 | 16 | 153 | 12.9 | 20.9 | 0.00 | 0.00 | 0.00 | 44 | 1005.4 |
| 20260505032226 | 16 | 206 | 14.5 | 20.9 | 0.00 | 0.00 | 0.00 | 43 | 1005.3 |
| 20260505031723 | 16 | 178 | 14.5 | 22.5 | 0.00 | 0.00 | 0.00 | 43 | 1005.3 |
| 20260505031211 | 16 | 167 | 14.5 | 22.5 | 0.00 | 0.00 | 0.00 | 43 | 1005.2 |
| 20260505030712 | 16 | 157 | 14.5 | 25.7 | 0.00 | 0.00 | 0.00 | 43 | 1005.2 |
| 20260505030201 | 16 | 163 | 12.9 | 27.4 | 0.00 | 0.00 | 0.00 | 44 | 1005.2 |
| 20260505025659 | 16 | 196 | 12.9 | 27.4 | 0.00 | 0.00 | 0.00 | 44 | 1005.2 |
| 20260505025146 | 16 | 194 | 9.7 | 17.7 | 0.00 | 0.00 | 0.00 | 41 | 1005.2 |
| 20260505024645 | 16 | 195 | 9.7 | 14.5 | 0.00 | 0.00 | 0.00 | 43 | 1004.9 |
| 20260505024141 | 16 | 180 | 9.7 | 16.1 | 0.00 | 0.00 | 0.00 | 43 | 1004.9 |
| 20260505023635 | 16 | 121 | 11.3 | 19.3 | 0.00 | 0.00 | 0.00 | 44 | 1004.8 |
| 20260505023129 | 16 | 132 | 11.3 | 19.3 | 0.00 | 0.00 | 0.00 | 44 | 1004.8 |
| 20260505022619 | 16 | 165 | 11.3 | 22.5 | 0.00 | 0.00 | 0.00 | 44 | 1004.6 |
| 20260505022109 | 16 | 109 | 12.9 | 25.7 | 0.00 | 0.00 | 0.00 | 44 | 1004.6 |
| 20260505021610 | 16 | 132 | 14.5 | 25.7 | 0.00 | 0.00 | 0.00 | 46 | 1004.6 |
| 20260505021104 | 16 | 122 | 16.1 | 25.7 | 0.00 | 0.00 | 0.00 | 45 | 1004.8 |
| 20260505020559 | 16 | 115 | 16.1 | 22.5 | 0.00 | 0.00 | 0.00 | 45 | 1004.6 |
| 20260505020049 | 17 | 133 | 16.1 | 22.5 | 0.00 | 0.00 | 0.00 | 44 | 1004.8 |
| 20260505015546 | 17 | 119 | 14.5 | 25.7 | 0.00 | 0.00 | 0.00 | 44 | 1004.6 |
| 20260505015308 | 17 | 117 | 14.5 | 25.7 | 0.00 | 0.00 | 0.00 | 44 | 1004.9 |
| 20260505014807 | 17 | 123 | 14.5 | 25.7 | 0.00 | 0.00 | 0.00 | 46 | 1004.9 |
| 20260505014300 | 17 | 118 | 12.9 | 25.7 | 0.00 | 0.00 | 0.00 | 49 | 1005.1 |
| 20260505013522 | 17 | 120 | 12.9 | 25.7 | 0.00 | 0.00 | 0.00 | 45 | 1005.0 |
| 20260505013012 | 17 | 105 | 14.5 | 22.5 | 0.00 | 0.00 | 0.00 | 49 | 1005.1 |
| 20260505012738 | 17 | 90 | 16.1 | 29.0 | 0.00 | 0.00 | 0.00 | 49 | 1005.0 |
| 20260505012005 | 17 | 109 | 17.7 | 33.8 | 0.00 | 0.00 | 0.00 | 47 | 1005.0 |
| 20260505011224 | 18 | 122 | 17.7 | 35.4 | 0.00 | 0.00 | 0.00 | 42 | 1005.4 |
| 20260505010446 | 18 | 123 | 14.5 | 27.4 | 0.00 | 0.00 | 0.00 | 35 | 1005.7 |
| 20260505005937 | 19 | 111 | 12.9 | 20.9 | 0.00 | 0.00 | 0.00 | 32 | 1005.8 |
| 20260505005435 | 19 | 160 | 11.3 | 20.9 | 0.00 | 0.00 | 0.00 | 33 | 1005.8 |
| 20260505004930 | 19 | 118 | 8.0 | 20.9 | 0.00 | 0.00 | 0.00 | 33 | 1006.0 |
| 20260505004424 | 19 | 123 | 8.0 | 12.9 | 0.00 | 0.00 | 0.00 | 30 | 1006.1 |
| 20260505003912 | 20 | 128 | 9.7 | 12.9 | 0.00 | 0.00 | 0.00 | 30 | 1006.3 |
| 20260505003407 | 20 | 184 | 11.3 | 19.3 | 0.00 | 0.00 | 0.00 | 30 | 1006.1 |
| 20260505002906 | 20 | 157 | 11.3 | 20.9 | 0.00 | 0.00 | 0.00 | 30 | 1006.1 |
| 20260505002356 | 20 | 114 | 11.3 | 20.9 | 0.00 | 0.00 | 0.00 | 30 | 1006.3 |
| 20260505001853 | 20 | 100 | 11.3 | 20.9 | 0.00 | 0.00 | 0.00 | 30 | 1006.1 |
| 20260505001347 | 20 | 142 | 8.0 | 19.3 | 0.00 | 0.00 | 0.00 | 30 | 1006.4 |
| 20260505001112 | 20 | 112 | 4.8 | 12.9 | 0.00 | 0.00 | 0.00 | 30 | 1006.6 |
| 20260505000332 | 20 | 37 | 4.8 | 9.7 | 0.00 | 0.00 | 0.00 | 30 | 1006.5 |
| 20260504235822 | 20 | 0 | 4.8 | 11.3 | 0.00 | 0.00 | 0.00 | 30 | 1006.5 |
| 20260504235323 | 20 | 17 | 3.2 | 11.3 | 0.00 | 0.00 | 0.00 | 30 | 1006.4 |
| 20260504234824 | 20 | 344 | 1.6 | 6.4 | 0.00 | 0.00 | 0.00 | 27 | 1006.6 |
| 20260504234323 | 20 | 153 | 3.2 | 8.0 | 0.00 | 0.00 | 0.00 | 28 | 1006.4 |
| 20260504233802 | 20 | 265 | 4.8 | 9.7 | 0.00 | 0.00 | 0.00 | 29 | 1006.1 |
| 20260504233251 | 19 | 242 | 6.4 | 11.3 | 0.00 | 0.00 | 0.00 | 30 | 1005.9 |
| 20260504232752 | 19 | 252 | 8.0 | 17.7 | 0.00 | 0.00 | 0.00 | 31 | 1006.0 |
| 20260504232244 | 19 | 304 | 9.7 | 19.3 | 0.00 | 0.00 | 0.00 | 32 | 1005.8 |
| 20260504231739 | 19 | 277 | 9.7 | 24.1 | 0.00 | 0.00 | 0.00 | 32 | 1005.8 |
| 20260504231232 | 19 | 243 | 11.3 | 24.1 | 0.00 | 0.00 | 0.00 | 32 | 1005.7 |
| 20260504230726 | 19 | 248 | 12.9 | 20.9 | 0.00 | 0.00 | 0.00 | 32 | 1005.7 |
| 20260504230220 | 18 | 275 | 11.3 | 19.3 | 0.00 | 0.00 | 0.00 | 32 | 1005.7 |
| 20260504225710 | 18 | 229 | 12.9 | 30.6 | 0.00 | 0.00 | 0.00 | 33 | 1005.6 |
| 20260504225209 | 19 | 221 | 14.5 | 30.6 | 0.00 | 0.00 | 0.00 | 32 | 1005.8 |
| 20260504224702 | 19 | 276 | 14.5 | 25.7 | 0.00 | 0.00 | 0.00 | 32 | 1005.9 |
| 20260504224158 | 20 | 238 | 14.5 | 27.4 | 0.00 | 0.00 | 0.00 | 33 | 1006.1 |
| 20260504223648 | 19 | 277 | 16.1 | 27.4 | 0.00 | 0.00 | 0.00 | 33 | 1006.0 |
| 20260504223142 | 20 | 265 | 14.5 | 27.4 | 0.00 | 0.00 | 0.00 | 33 | 1006.1 |
| 20260504222633 | 20 | 259 | 16.1 | 30.6 | 0.00 | 0.00 | 0.00 | 33 | 1006.5 |
| 20260504222125 | 20 | 270 | 14.5 | 30.6 | 0.00 | 0.00 | 0.00 | 33 | 1006.6 |
| 20260504221620 | 21 | 182 | 12.9 | 22.5 | 0.00 | 0.00 | 0.00 | 33 | 1006.7 |
| 20260504221113 | 21 | 191 | 11.3 | 22.5 | 0.00 | 0.00 | 0.00 | 32 | 1006.7 |
| 20260504220607 | 20 | 295 | 9.7 | 22.5 | 0.00 | 0.00 | 0.00 | 33 | 1006.5 |
| 20260504220108 | 20 | 226 | 9.7 | 19.3 | 0.00 | 0.00 | 0.00 | 33 | 1006.4 |
| 20260504215605 | 20 | 279 | 11.3 | 19.3 | 0.00 | 0.00 | 0.00 | 32 | 1006.6 |
| 20260504215106 | 20 | 263 | 9.7 | 17.7 | 0.00 | 0.00 | 0.00 | 31 | 1006.7 |
| 20260504214604 | 20 | 294 | 11.3 | 22.5 | 0.00 | 0.00 | 0.00 | 31 | 1006.7 |
| 20260504214102 | 20 | 267 | 11.3 | 22.5 | 0.00 | 0.00 | 0.00 | 32 | 1006.5 |
| 20260504213603 | 20 | 260 | 11.3 | 22.5 | 0.00 | 0.00 | 0.00 | 34 | 1006.4 |
| 20260504213105 | 19 | 271 | 9.7 | 24.1 | 0.00 | 0.00 | 0.00 | 33 | 1006.0 |
| 20260504212601 | 19 | 263 | 11.3 | 24.1 | 0.00 | 0.00 | 0.00 | 33 | 1006.1 |
| 20260504212100 | 19 | 258 | 14.5 | 25.7 | 0.00 | 0.00 | 0.00 | 34 | 1006.1 |
| 20260504211602 | 18 | 214 | 16.1 | 25.7 | 0.00 | 0.00 | 0.00 | 35 | 1006.1 |
| 20260504211100 | 18 | 267 | 16.1 | 29.0 | 0.00 | 0.00 | 0.00 | 37 | 1006.3 |
| 20260504210559 | 18 | 274 | 16.1 | 30.6 | 0.00 | 0.00 | 0.00 | 37 | 1006.4 |
| 20260504210100 | 19 | 274 | 16.1 | 30.6 | 0.00 | 0.00 | 0.00 | 36 | 1006.5 |
| 20260504205558 | 19 | 263 | 17.7 | 33.8 | 0.00 | 0.00 | 0.00 | 35 | 1006.6 |
| 20260504205057 | 19 | 266 | 14.5 | 35.4 | 0.00 | 0.00 | 0.00 | 35 | 1006.7 |
| 20260504204558 | 20 | 275 | 11.3 | 35.4 | 0.00 | 0.00 | 0.00 | 32 | 1006.8 |
| 20260504204059 | 20 | 196 | 12.9 | 22.5 | 0.00 | 0.00 | 0.00 | 36 | 1006.7 |
| 20260504203549 | 19 | 128 | 12.9 | 22.5 | 0.00 | 0.00 | 0.00 | 35 | 1006.8 |
| 20260504203042 | 20 | 130 | 11.3 | 22.5 | 0.00 | 0.00 | 0.00 | 36 | 1006.8 |
| 20260504202536 | 20 | 107 | 12.9 | 22.5 | 0.00 | 0.00 | 0.00 | 35 | 1006.9 |
| 20260504202029 | 20 | 137 | 14.5 | 24.1 | 0.00 | 0.00 | 0.00 | 34 | 1006.9 |
| 20260504201754 | 20 | 91 | 14.5 | 22.5 | 0.00 | 0.00 | 0.00 | 32 | 1006.8 |
| 20260504201016 | 20 | 81 | 14.5 | 29.0 | 0.00 | 0.00 | 0.00 | 33 | 1007.1 |
| 20260504200516 | 20 | 114 | 16.1 | 29.0 | 0.00 | 0.00 | 0.00 | 33 | 1007.2 |
| 20260504200014 | 20 | 119 | 17.7 | 32.2 | 0.00 | 0.00 | 0.00 | 32 | 1007.3 |
| 20260504195744 | 20 | 91 | 17.7 | 33.8 | 0.00 | 0.00 | 0.00 | 32 | 1007.4 |
| 20260504195013 | 21 | 124 | 17.7 | 33.8 | 0.00 | 0.00 | 0.00 | 31 | 1007.5 |
| 20260504194512 | 20 | 84 | 17.7 | 27.4 | 0.00 | 0.00 | 0.00 | 32 | 1007.6 |
| 20260504194011 | 21 | 121 | 17.7 | 33.8 | 0.00 | 0.00 | 0.00 | 32 | 1007.7 |
| 20260504193511 | 20 | 180 | 20.9 | 33.8 | 0.00 | 0.00 | 0.00 | 32 | 1007.5 |
| 20260504193012 | 20 | 97 | 20.9 | 33.8 | 0.00 | 0.00 | 0.00 | 33 | 1007.6 |
| 20260504192513 | 20 | 31 | 20.9 | 33.8 | 0.00 | 0.00 | 0.00 | 33 | 1007.5 |
| 20260504192009 | 20 | 85 | 19.3 | 32.2 | 0.00 | 0.00 | 0.00 | 34 | 1007.5 |
| 20260504191509 | 20 | 100 | 19.3 | 32.2 | 0.00 | 0.00 | 0.00 | 33 | 1007.7 |
| 20260504191006 | 21 | 107 | 17.7 | 32.2 | 0.00 | 0.00 | 0.00 | 31 | 1007.7 |
| 20260504190508 | 20 | 92 | 17.7 | 30.6 | 0.00 | 0.00 | 0.00 | 33 | 1007.7 |
| 20260504185455 | 20 | 113 | 17.7 | 30.6 | 0.00 | 0.00 | 0.00 | 34 | 1008.2 |
| 20260504184955 | 20 | 100 | 17.7 | 30.6 | 0.00 | 0.00 | 0.00 | 34 | 1007.9 |
| 20260504184455 | 20 | 72 | 17.7 | 32.2 | 0.00 | 0.00 | 0.00 | 33 | 1008.2 |
| 20260504183955 | 20 | 128 | 16.1 | 32.2 | 0.00 | 0.00 | 0.00 | 33 | 1008.1 |
| 20260504183453 | 20 | 109 | 16.1 | 25.7 | 0.00 | 0.00 | 0.00 | 34 | 1008.1 |
| 20260504182956 | 20 | 96 | 16.1 | 25.7 | 0.00 | 0.00 | 0.00 | 33 | 1008.2 |
| 20260504182452 | 20 | 86 | 16.1 | 25.7 | 0.00 | 0.00 | 0.00 | 33 | 1008.1 |
| 20260504181953 | 20 | 101 | 14.5 | 25.7 | 0.00 | 0.00 | 0.00 | 33 | 1008.1 |
| 20260504181454 | 20 | 82 | 12.9 | 24.1 | 0.00 | 0.00 | 0.00 | 34 | 1008.2 |
| 20260504181218 | 20 | 103 | 12.9 | 24.1 | 0.00 | 0.00 | 0.00 | 35 | 1008.0 |
| 20260504180439 | 19 | 89 | 12.9 | 24.1 | 0.00 | 0.00 | 0.00 | 35 | 1008.1 |
| 20260504180210 | 19 | 83 | 14.5 | 20.9 | 0.00 | 0.00 | 0.00 | 35 | 1008.0 |
| 20260504175439 | 19 | 74 | 14.5 | 29.0 | 0.00 | 0.00 | 0.00 | 35 | 1007.9 |
| 20260504175210 | 18 | 42 | 14.5 | 29.0 | 0.00 | 0.00 | 0.00 | 35 | 1008.0 |
| 20260504174437 | 19 | 98 | 14.5 | 25.7 | 0.00 | 0.00 | 0.00 | 35 | 1008.3 |
| 20260504173938 | 19 | 76 | 14.5 | 24.1 | 0.00 | 0.00 | 0.00 | 37 | 1008.1 |
| 20260504173436 | 18 | 113 | 16.1 | 25.7 | 0.00 | 0.00 | 0.00 | 37 | 1008.0 |
| 20260504172938 | 18 | 118 | 16.1 | 25.7 | 0.00 | 0.00 | 0.00 | 35 | 1008.1 |
| 20260504172440 | 18 | 83 | 14.5 | 25.7 | 0.00 | 0.00 | 0.00 | 36 | 1008.3 |
| 20260504172207 | 18 | 97 | 16.1 | 25.7 | 0.00 | 0.00 | 0.00 | 37 | 1008.2 |
| 20260504171421 | 18 | 134 | 14.5 | 25.7 | 0.00 | 0.00 | 0.00 | 37 | 1008.2 |
| 20260504170916 | 18 | 110 | 12.9 | 24.1 | 0.00 | 0.00 | 0.00 | 35 | 1008.3 |
| 20260504170418 | 18 | 76 | 12.9 | 22.5 | 0.00 | 0.00 | 0.00 | 40 | 1008.2 |
| 20260504160407 | 17 | 96 | 6.4 | 11.3 | 0.00 | 0.00 | 0.00 | 45 | 1007.7 |
| 20260504160136 | 16 | 56 | 6.4 | 11.3 | 0.00 | 0.00 | 0.00 | 45 | 1007.5 |
| 20260504151020 | 15 | 84 | 6.4 | 11.3 | 0.00 | 0.00 | 0.00 | 50 | 1007.5 |
| 20260504150235 | 15 | 99 | 8.0 | 12.9 | 0.00 | 0.00 | 0.00 | 49 | 1007.5 |
| 20260504141036 | 13 | 202 | 4.8 | 8.0 | 0.00 | 0.00 | 0.00 | 57 | 1006.7 |
| 20260504140523 | 13 | 175 | 4.8 | 9.7 | 0.00 | 0.00 | 0.00 | 56 | 1006.6 |
| 20260504130344 | 13 | 46 | 3.2 | 6.4 | 0.00 | 0.00 | 0.00 | 57 | 1006.3 |
| 20260504130109 | 13 | 107 | 3.2 | 8.0 | 0.00 | 0.00 | 0.00 | 57 | 1006.5 |
| 20260504110118 | 13 | 279 | 0.0 | 3.2 | 0.00 | 0.00 | 0.00 | 50 | 1006.4 |